Terminal Aerodrome Forecast
Issued by NWS

Home | Current Version | Previous Version | Text Only | Print | Product List | Glossary On
Versions: 1 2 3 4 5 6 7 8 9 10 11 12 13 14 15 16 17 18 19
000
FTUS44 KLIX 282339 AAC
TAFMCB
TAF AMD
KMCB 282339Z 2900/2924 17009KT P6SM SCT200
     FM290300 26004KT P6SM VCTS BKN150CB
      TEMPO 2904/2907 2SM TSRA BKN040CB
     FM290900 22004KT P6SM BKN150
     FM291400 21004KT P6SM VCSH OVC020
     FM291600 VRB03KT P6SM -SHRA VCTS BKN060CB=

USA.gov is the U.S. government's official web portal to all federal, state and local government web resources and services.